sensor_id;sensor_type;location;lat;lon;timestamp;temperature;humidity
7972;DHT22;4031;49.758;6.120;2022-12-13T00:01:50;-7.80;99.90
7972;DHT22;4031;49.758;6.120;2022-12-13T00:04:18;-7.80;99.90
7972;DHT22;4031;49.758;6.120;2022-12-13T00:06:45;-7.90;99.90
7972;DHT22;4031;49.758;6.120;2022-12-13T00:09:16;-7.90;99.90
7972;DHT22;4031;49.758;6.120;2022-12-13T00:11:43;-7.80;99.90
7972;DHT22;4031;49.758;6.120;2022-12-13T00:14:10;-7.80;99.90
7972;DHT22;4031;49.758;6.120;2022-12-13T00:16:38;-7.80;99.90
7972;DHT22;4031;49.758;6.120;2022-12-13T00:19:04;-7.90;99.90
7972;DHT22;4031;49.758;6.120;2022-12-13T00:21:31;-7.90;99.90
7972;DHT22;4031;49.758;6.120;2022-12-13T00:23:58;-8.00;99.90
7972;DHT22;4031;49.758;6.120;2022-12-13T00:26:27;-8.10;99.90
7972;DHT22;4031;49.758;6.120;2022-12-13T00:28:54;-8.10;99.90
7972;DHT22;4031;49.758;6.120;2022-12-13T00:31:24;-8.20;99.90
7972;DHT22;4031;49.758;6.120;2022-12-13T00:33:50;-8.20;99.90
7972;DHT22;4031;49.758;6.120;2022-12-13T00:36:16;-8.30;99.90
7972;DHT22;4031;49.758;6.120;2022-12-13T00:38:42;-8.30;99.90
7972;DHT22;4031;49.758;6.120;2022-12-13T00:41:19;-8.30;99.90
7972;DHT22;4031;49.758;6.120;2022-12-13T00:43:45;-8.30;99.90
7972;DHT22;4031;49.758;6.120;2022-12-13T00:46:13;-8.10;99.90
7972;DHT22;4031;49.758;6.120;2022-12-13T00:48:41;-8.00;99.90
7972;DHT22;4031;49.758;6.120;2022-12-13T00:51:09;-7.90;99.90
7972;DHT22;4031;49.758;6.120;2022-12-13T00:53:36;-7.90;99.90
7972;DHT22;4031;49.758;6.120;2022-12-13T00:56:03;-7.90;99.90
7972;DHT22;4031;49.758;6.120;2022-12-13T00:58:29;-7.90;99.90
7972;DHT22;4031;49.758;6.120;2022-12-13T01:01:06;-7.80;99.90
7972;DHT22;4031;49.758;6.120;2022-12-13T01:03:34;-7.80;99.90
7972;DHT22;4031;49.758;6.120;2022-12-13T01:06:00;-7.80;99.90
7972;DHT22;4031;49.758;6.120;2022-12-13T01:08:26;-7.90;99.90
7972;DHT22;4031;49.758;6.120;2022-12-13T01:10:53;-7.90;99.90
7972;DHT22;4031;49.758;6.120;2022-12-13T01:13:19;-7.90;99.90
7972;DHT22;4031;49.758;6.120;2022-12-13T01:15:46;-7.90;99.90
7972;DHT22;4031;49.758;6.120;2022-12-13T01:18:13;-7.90;99.90
7972;DHT22;4031;49.758;6.120;2022-12-13T01:20:43;-7.90;99.90
7972;DHT22;4031;49.758;6.120;2022-12-13T01:23:22;-8.00;99.90
7972;DHT22;4031;49.758;6.120;2022-12-13T01:25:47;-8.00;99.90
7972;DHT22;4031;49.758;6.120;2022-12-13T01:28:13;-8.00;99.90
7972;DHT22;4031;49.758;6.120;2022-12-13T01:30:39;-8.00;99.90
7972;DHT22;4031;49.758;6.120;2022-12-13T01:33:04;-8.10;99.90
7972;DHT22;4031;49.758;6.120;2022-12-13T01:35:33;-8.10;99.90
7972;DHT22;4031;49.758;6.120;2022-12-13T01:37:59;-8.00;99.90
7972;DHT22;4031;49.758;6.120;2022-12-13T01:40:25;-8.10;99.90
7972;DHT22;4031;49.758;6.120;2022-12-13T01:42:51;-8.20;99.90
7972;DHT22;4031;49.758;6.120;2022-12-13T01:45:23;-8.20;99.90
7972;DHT22;4031;49.758;6.120;2022-12-13T01:47:59;-8.30;99.90
7972;DHT22;4031;49.758;6.120;2022-12-13T01:50:31;-8.30;99.90
7972;DHT22;4031;49.758;6.120;2022-12-13T01:53:06;-8.40;99.90
7972;DHT22;4031;49.758;6.120;2022-12-13T01:55:35;-8.40;99.90
7972;DHT22;4031;49.758;6.120;2022-12-13T01:58:04;-8.50;99.90
7972;DHT22;4031;49.758;6.120;2022-12-13T02:00:31;-8.50;99.90
7972;DHT22;4031;49.758;6.120;2022-12-13T02:02:58;-8.50;99.90
7972;DHT22;4031;49.758;6.120;2022-12-13T02:05:32;-8.60;99.90
7972;DHT22;4031;49.758;6.120;2022-12-13T02:08:01;-8.60;99.90
7972;DHT22;4031;49.758;6.120;2022-12-13T02:10:28;-8.50;99.90
7972;DHT22;4031;49.758;6.120;2022-12-13T02:12:55;-8.50;99.90
7972;DHT22;4031;49.758;6.120;2022-12-13T02:15:21;-8.50;99.90
7972;DHT22;4031;49.758;6.120;2022-12-13T02:17:51;-8.50;99.90
7972;DHT22;4031;49.758;6.120;2022-12-13T02:23:40;-8.50;99.90
7972;DHT22;4031;49.758;6.120;2022-12-13T02:26:41;-8.50;99.90
7972;DHT22;4031;49.758;6.120;2022-12-13T02:34:55;-8.60;99.90
7972;DHT22;4031;49.758;6.120;2022-12-13T02:37:55;-8.50;99.90
7972;DHT22;4031;49.758;6.120;2022-12-13T02:40:42;-8.40;99.90
7972;DHT22;4031;49.758;6.120;2022-12-13T02:43:24;-8.50;99.90
7972;DHT22;4031;49.758;6.120;2022-12-13T02:45:54;-8.50;99.90
7972;DHT22;4031;49.758;6.120;2022-12-13T02:48:27;-8.50;99.90
7972;DHT22;4031;49.758;6.120;2022-12-13T02:50:55;-8.40;99.90
7972;DHT22;4031;49.758;6.120;2022-12-13T02:53:23;-8.50;99.90
7972;DHT22;4031;49.758;6.120;2022-12-13T02:55:50;-8.50;99.90
7972;DHT22;4031;49.758;6.120;2022-12-13T02:58:23;-8.50;99.90
7972;DHT22;4031;49.758;6.120;2022-12-13T03:06:49;-8.20;99.90
7972;DHT22;4031;49.758;6.120;2022-12-13T03:13:01;-8.40;99.90
7972;DHT22;4031;49.758;6.120;2022-12-13T03:15:56;-8.50;99.90
7972;DHT22;4031;49.758;6.120;2022-12-13T03:18:26;-8.50;99.90
7972;DHT22;4031;49.758;6.120;2022-12-13T03:20:58;-8.60;99.90
7972;DHT22;4031;49.758;6.120;2022-12-13T03:23:29;-8.60;99.90
7972;DHT22;4031;49.758;6.120;2022-12-13T03:25:57;-8.60;99.90
7972;DHT22;4031;49.758;6.120;2022-12-13T03:28:26;-8.60;99.90
7972;DHT22;4031;49.758;6.120;2022-12-13T03:30:52;-8.60;99.90
7972;DHT22;4031;49.758;6.120;2022-12-13T03:33:17;-8.60;99.90
7972;DHT22;4031;49.758;6.120;2022-12-13T03:35:43;-8.60;99.90
7972;DHT22;4031;49.758;6.120;2022-12-13T03:38:10;-8.70;99.90
7972;DHT22;4031;49.758;6.120;2022-12-13T03:40:39;-8.70;99.90
7972;DHT22;4031;49.758;6.120;2022-12-13T03:43:05;-8.70;99.90
7972;DHT22;4031;49.758;6.120;2022-12-13T03:45:30;-8.80;99.90
7972;DHT22;4031;49.758;6.120;2022-12-13T03:47:56;-8.80;99.90
7972;DHT22;4031;49.758;6.120;2022-12-13T03:50:22;-8.80;99.90
7972;DHT22;4031;49.758;6.120;2022-12-13T03:52:48;-8.80;99.90
7972;DHT22;4031;49.758;6.120;2022-12-13T03:55:17;-8.80;99.90
7972;DHT22;4031;49.758;6.120;2022-12-13T03:57:43;-8.70;99.90
7972;DHT22;4031;49.758;6.120;2022-12-13T04:00:09;-8.60;99.90
7972;DHT22;4031;49.758;6.120;2022-12-13T04:02:35;-8.60;99.90
7972;DHT22;4031;49.758;6.120;2022-12-13T04:05:01;-8.60;99.90
7972;DHT22;4031;49.758;6.120;2022-12-13T04:07:27;-8.50;99.90
7972;DHT22;4031;49.758;6.120;2022-12-13T04:09:52;-8.60;99.90
7972;DHT22;4031;49.758;6.120;2022-12-13T04:12:18;-8.70;99.90
7972;DHT22;4031;49.758;6.120;2022-12-13T04:15:02;-8.80;99.90
7972;DHT22;4031;49.758;6.120;2022-12-13T04:17:28;-8.90;99.90
7972;DHT22;4031;49.758;6.120;2022-12-13T04:19:54;-8.90;99.90
7972;DHT22;4031;49.758;6.120;2022-12-13T04:22:20;-9.00;99.90
7972;DHT22;4031;49.758;6.120;2022-12-13T04:24:45;-9.00;99.90
7972;DHT22;4031;49.758;6.120;2022-12-13T04:27:11;-9.00;99.90
7972;DHT22;4031;49.758;6.120;2022-12-13T04:29:37;-9.10;99.90
7972;DHT22;4031;49.758;6.120;2022-12-13T04:32:04;-9.10;99.90
7972;DHT22;4031;49.758;6.120;2022-12-13T04:34:29;-9.10;99.90
7972;DHT22;4031;49.758;6.120;2022-12-13T04:36:55;-9.00;99.90
7972;DHT22;4031;49.758;6.120;2022-12-13T04:39:21;-9.00;99.90
7972;DHT22;4031;49.758;6.120;2022-12-13T04:41:47;-9.00;99.90
7972;DHT22;4031;49.758;6.120;2022-12-13T04:44:12;-8.90;99.90
7972;DHT22;4031;49.758;6.120;2022-12-13T04:46:38;-8.90;99.90
7972;DHT22;4031;49.758;6.120;2022-12-13T04:49:04;-8.80;99.90
7972;DHT22;4031;49.758;6.120;2022-12-13T04:51:30;-8.90;99.90
7972;DHT22;4031;49.758;6.120;2022-12-13T04:53:55;-8.80;99.90
7972;DHT22;4031;49.758;6.120;2022-12-13T04:56:21;-8.90;99.90
7972;DHT22;4031;49.758;6.120;2022-12-13T04:58:47;-8.90;99.90
7972;DHT22;4031;49.758;6.120;2022-12-13T05:01:12;-8.90;99.90
7972;DHT22;4031;49.758;6.120;2022-12-13T05:03:38;-8.90;99.90
7972;DHT22;4031;49.758;6.120;2022-12-13T05:06:08;-8.90;99.90
7972;DHT22;4031;49.758;6.120;2022-12-13T05:08:35;-8.90;99.90
7972;DHT22;4031;49.758;6.120;2022-12-13T05:11:03;-8.90;99.90
7972;DHT22;4031;49.758;6.120;2022-12-13T05:13:29;-8.90;99.90
7972;DHT22;4031;49.758;6.120;2022-12-13T05:15:56;-8.80;99.90
7972;DHT22;4031;49.758;6.120;2022-12-13T05:18:23;-8.80;99.90
7972;DHT22;4031;49.758;6.120;2022-12-13T05:20:49;-8.80;99.90
7972;DHT22;4031;49.758;6.120;2022-12-13T05:23:16;-8.70;99.90
7972;DHT22;4031;49.758;6.120;2022-12-13T05:25:42;-8.70;99.90
7972;DHT22;4031;49.758;6.120;2022-12-13T05:28:08;-8.70;99.90
7972;DHT22;4031;49.758;6.120;2022-12-13T05:30:37;-8.70;99.90
7972;DHT22;4031;49.758;6.120;2022-12-13T05:33:03;-8.70;99.90
7972;DHT22;4031;49.758;6.120;2022-12-13T05:35:29;-8.60;99.90
7972;DHT22;4031;49.758;6.120;2022-12-13T05:37:55;-8.70;99.90
7972;DHT22;4031;49.758;6.120;2022-12-13T05:40:22;-8.70;99.90
7972;DHT22;4031;49.758;6.120;2022-12-13T05:42:48;-8.70;99.90
7972;DHT22;4031;49.758;6.120;2022-12-13T05:45:15;-8.60;99.90
7972;DHT22;4031;49.758;6.120;2022-12-13T05:47:42;-8.60;99.90
7972;DHT22;4031;49.758;6.120;2022-12-13T05:50:08;-8.60;99.90
7972;DHT22;4031;49.758;6.120;2022-12-13T05:52:35;-8.50;99.90
7972;DHT22;4031;49.758;6.120;2022-12-13T05:55:01;-8.40;99.90
7972;DHT22;4031;49.758;6.120;2022-12-13T05:57:27;-8.40;99.90
7972;DHT22;4031;49.758;6.120;2022-12-13T05:59:52;-8.40;99.90
7972;DHT22;4031;49.758;6.120;2022-12-13T06:02:19;-8.30;99.90
7972;DHT22;4031;49.758;6.120;2022-12-13T06:04:44;-8.30;99.90
7972;DHT22;4031;49.758;6.120;2022-12-13T06:07:11;-8.30;99.90
7972;DHT22;4031;49.758;6.120;2022-12-13T06:09:37;-8.30;99.90
7972;DHT22;4031;49.758;6.120;2022-12-13T06:12:03;-8.30;99.90
7972;DHT22;4031;49.758;6.120;2022-12-13T06:14:29;-8.30;99.90
7972;DHT22;4031;49.758;6.120;2022-12-13T06:16:54;-8.40;99.90
7972;DHT22;4031;49.758;6.120;2022-12-13T06:19:21;-8.30;99.90
7972;DHT22;4031;49.758;6.120;2022-12-13T06:21:51;-8.30;99.90
7972;DHT22;4031;49.758;6.120;2022-12-13T06:24:19;-8.30;99.90
7972;DHT22;4031;49.758;6.120;2022-12-13T06:26:46;-8.30;99.90
7972;DHT22;4031;49.758;6.120;2022-12-13T06:29:13;-8.20;99.90
7972;DHT22;4031;49.758;6.120;2022-12-13T06:31:40;-8.20;99.90
7972;DHT22;4031;49.758;6.120;2022-12-13T06:34:05;-8.20;99.90
7972;DHT22;4031;49.758;6.120;2022-12-13T06:36:31;-8.30;99.90
7972;DHT22;4031;49.758;6.120;2022-12-13T06:39:04;-8.30;99.90
7972;DHT22;4031;49.758;6.120;2022-12-13T06:41:31;-8.20;99.90
7972;DHT22;4031;49.758;6.120;2022-12-13T06:43:58;-8.20;99.90
7972;DHT22;4031;49.758;6.120;2022-12-13T06:46:24;-8.20;99.90
7972;DHT22;4031;49.758;6.120;2022-12-13T06:48:51;-8.20;99.90
7972;DHT22;4031;49.758;6.120;2022-12-13T06:51:17;-8.10;99.90
7972;DHT22;4031;49.758;6.120;2022-12-13T06:53:43;-8.10;99.90
7972;DHT22;4031;49.758;6.120;2022-12-13T06:56:11;-8.20;99.90
7972;DHT22;4031;49.758;6.120;2022-12-13T06:58:38;-8.10;99.90
7972;DHT22;4031;49.758;6.120;2022-12-13T07:01:05;-8.10;99.90
7972;DHT22;4031;49.758;6.120;2022-12-13T07:03:35;-8.10;99.90
7972;DHT22;4031;49.758;6.120;2022-12-13T07:06:08;-8.20;99.90
7972;DHT22;4031;49.758;6.120;2022-12-13T07:08:36;-8.20;99.90
7972;DHT22;4031;49.758;6.120;2022-12-13T07:11:02;-8.30;99.90
7972;DHT22;4031;49.758;6.120;2022-12-13T07:13:28;-8.20;99.90
7972;DHT22;4031;49.758;6.120;2022-12-13T07:15:55;-8.30;99.90
7972;DHT22;4031;49.758;6.120;2022-12-13T07:18:21;-8.30;99.90
7972;DHT22;4031;49.758;6.120;2022-12-13T07:20:47;-8.30;99.90
7972;DHT22;4031;49.758;6.120;2022-12-13T07:23:13;-8.20;99.90
7972;DHT22;4031;49.758;6.120;2022-12-13T07:25:39;-8.30;99.90
7972;DHT22;4031;49.758;6.120;2022-12-13T07:28:06;-8.40;99.90
7972;DHT22;4031;49.758;6.120;2022-12-13T07:30:35;-8.40;99.90
7972;DHT22;4031;49.758;6.120;2022-12-13T07:33:03;-8.40;99.90
7972;DHT22;4031;49.758;6.120;2022-12-13T07:35:30;-8.40;99.90
7972;DHT22;4031;49.758;6.120;2022-12-13T07:37:57;-8.40;99.90
7972;DHT22;4031;49.758;6.120;2022-12-13T07:40:23;-8.20;99.90
7972;DHT22;4031;49.758;6.120;2022-12-13T07:42:50;-8.20;99.90
7972;DHT22;4031;49.758;6.120;2022-12-13T07:45:17;-8.30;99.90
7972;DHT22;4031;49.758;6.120;2022-12-13T07:47:43;-8.20;99.90
7972;DHT22;4031;49.758;6.120;2022-12-13T07:50:09;-8.20;99.90
7972;DHT22;4031;49.758;6.120;2022-12-13T07:52:35;-8.10;99.90
7972;DHT22;4031;49.758;6.120;2022-12-13T07:55:01;-8.10;99.90
7972;DHT22;4031;49.758;6.120;2022-12-13T07:57:29;-8.00;99.90
7972;DHT22;4031;49.758;6.120;2022-12-13T07:59:55;-8.00;99.90
7972;DHT22;4031;49.758;6.120;2022-12-13T08:02:20;-7.90;99.90
7972;DHT22;4031;49.758;6.120;2022-12-13T08:04:46;-7.90;99.90
7972;DHT22;4031;49.758;6.120;2022-12-13T08:07:12;-7.80;99.90
7972;DHT22;4031;49.758;6.120;2022-12-13T08:09:37;-7.70;99.90
7972;DHT22;4031;49.758;6.120;2022-12-13T08:12:03;-7.70;99.90
7972;DHT22;4031;49.758;6.120;2022-12-13T08:14:30;-7.70;99.90
7972;DHT22;4031;49.758;6.120;2022-12-13T08:16:56;-7.60;99.90
7972;DHT22;4031;49.758;6.120;2022-12-13T08:19:22;-7.60;99.90
7972;DHT22;4031;49.758;6.120;2022-12-13T08:21:48;-7.50;99.90
7972;DHT22;4031;49.758;6.120;2022-12-13T08:24:17;-7.50;99.90
7972;DHT22;4031;49.758;6.120;2022-12-13T08:26:43;-7.50;99.90
7972;DHT22;4031;49.758;6.120;2022-12-13T08:29:11;-7.40;99.90
7972;DHT22;4031;49.758;6.120;2022-12-13T08:31:37;-7.40;99.90
7972;DHT22;4031;49.758;6.120;2022-12-13T08:34:03;-7.40;99.90
7972;DHT22;4031;49.758;6.120;2022-12-13T08:36:30;-7.40;99.90
7972;DHT22;4031;49.758;6.120;2022-12-13T08:38:56;-7.40;99.90
7972;DHT22;4031;49.758;6.120;2022-12-13T08:41:23;-7.40;99.90
7972;DHT22;4031;49.758;6.120;2022-12-13T08:43:49;-7.30;99.90
7972;DHT22;4031;49.758;6.120;2022-12-13T08:46:15;-7.30;99.90
7972;DHT22;4031;49.758;6.120;2022-12-13T08:48:41;-7.20;99.90
7972;DHT22;4031;49.758;6.120;2022-12-13T08:51:09;-7.20;99.90
7972;DHT22;4031;49.758;6.120;2022-12-13T08:53:39;-7.10;99.90
7972;DHT22;4031;49.758;6.120;2022-12-13T08:56:09;-7.10;99.90
7972;DHT22;4031;49.758;6.120;2022-12-13T08:58:37;-7.00;99.90
7972;DHT22;4031;49.758;6.120;2022-12-13T09:01:10;-7.00;99.90
7972;DHT22;4031;49.758;6.120;2022-12-13T09:03:36;-6.90;99.90
7972;DHT22;4031;49.758;6.120;2022-12-13T09:06:20;-6.80;99.90
7972;DHT22;4031;49.758;6.120;2022-12-13T09:08:46;-6.70;99.90
7972;DHT22;4031;49.758;6.120;2022-12-13T09:11:12;-6.70;99.90
7972;DHT22;4031;49.758;6.120;2022-12-13T09:13:39;-6.60;99.90
7972;DHT22;4031;49.758;6.120;2022-12-13T09:16:15;-6.50;99.90
7972;DHT22;4031;49.758;6.120;2022-12-13T09:18:48;-6.20;99.90
7972;DHT22;4031;49.758;6.120;2022-12-13T09:21:17;-6.00;99.90
7972;DHT22;4031;49.758;6.120;2022-12-13T09:23:44;-5.80;99.90
7972;DHT22;4031;49.758;6.120;2022-12-13T09:26:12;-5.80;99.90
7972;DHT22;4031;49.758;6.120;2022-12-13T09:28:39;-5.50;99.90
7972;DHT22;4031;49.758;6.120;2022-12-13T09:31:09;-5.40;99.90
7972;DHT22;4031;49.758;6.120;2022-12-13T09:33:36;-5.30;99.90
7972;DHT22;4031;49.758;6.120;2022-12-13T09:36:04;-5.20;99.90
7972;DHT22;4031;49.758;6.120;2022-12-13T09:38:32;-5.10;99.90
7972;DHT22;4031;49.758;6.120;2022-12-13T09:41:06;-5.00;99.90
7972;DHT22;4031;49.758;6.120;2022-12-13T09:43:35;-4.90;99.90
7972;DHT22;4031;49.758;6.120;2022-12-13T09:46:06;-4.70;99.90
7972;DHT22;4031;49.758;6.120;2022-12-13T09:48:35;-4.70;99.90
7972;DHT22;4031;49.758;6.120;2022-12-13T09:51:02;-4.60;99.90
7972;DHT22;4031;49.758;6.120;2022-12-13T09:53:27;-4.50;99.90
7972;DHT22;4031;49.758;6.120;2022-12-13T09:55:53;-4.40;99.90
7972;DHT22;4031;49.758;6.120;2022-12-13T09:58:27;-4.30;99.90
7972;DHT22;4031;49.758;6.120;2022-12-13T10:00:57;-4.20;99.90
7972;DHT22;4031;49.758;6.120;2022-12-13T10:03:23;-4.10;99.90
7972;DHT22;4031;49.758;6.120;2022-12-13T10:06:00;-4.10;99.90
7972;DHT22;4031;49.758;6.120;2022-12-13T10:08:41;-4.00;99.90
7972;DHT22;4031;49.758;6.120;2022-12-13T10:11:13;-4.00;99.90
7972;DHT22;4031;49.758;6.120;2022-12-13T10:19:17;-3.80;99.90
7972;DHT22;4031;49.758;6.120;2022-12-13T10:21:47;-3.70;99.90
7972;DHT22;4031;49.758;6.120;2022-12-13T10:26:46;-3.60;99.90
7972;DHT22;4031;49.758;6.120;2022-12-13T10:29:13;-3.40;99.90
7972;DHT22;4031;49.758;6.120;2022-12-13T10:31:49;-3.30;99.90
7972;DHT22;4031;49.758;6.120;2022-12-13T10:34:23;-3.10;99.90
7972;DHT22;4031;49.758;6.120;2022-12-13T10:36:51;-2.90;99.90
7972;DHT22;4031;49.758;6.120;2022-12-13T10:39:38;-2.80;99.90
7972;DHT22;4031;49.758;6.120;2022-12-13T10:42:12;-2.60;99.90
7972;DHT22;4031;49.758;6.120;2022-12-13T10:44:39;-2.50;99.90
7972;DHT22;4031;49.758;6.120;2022-12-13T10:47:15;-2.40;99.90
7972;DHT22;4031;49.758;6.120;2022-12-13T10:49:53;-2.30;99.90
7972;DHT22;4031;49.758;6.120;2022-12-13T10:54:59;-2.00;99.90
7972;DHT22;4031;49.758;6.120;2022-12-13T10:57:30;-1.80;99.90
7972;DHT22;4031;49.758;6.120;2022-12-13T10:59:56;-1.80;99.90
7972;DHT22;4031;49.758;6.120;2022-12-13T11:02:36;-1.80;99.90
7972;DHT22;4031;49.758;6.120;2022-12-13T11:05:24;-1.60;99.90
7972;DHT22;4031;49.758;6.120;2022-12-13T11:07:51;-1.50;99.90
7972;DHT22;4031;49.758;6.120;2022-12-13T11:12:46;-0.90;99.90
7972;DHT22;4031;49.758;6.120;2022-12-13T11:15:16;-0.60;99.90
7972;DHT22;4031;49.758;6.120;2022-12-13T11:17:54;-0.40;99.90
7972;DHT22;4031;49.758;6.120;2022-12-13T11:20:28;-0.10;99.90
7972;DHT22;4031;49.758;6.120;2022-12-13T11:26:13;-0.10;99.90
7972;DHT22;4031;49.758;6.120;2022-12-13T11:31:55;-0.20;99.90
7972;DHT22;4031;49.758;6.120;2022-12-13T11:34:47;-0.10;99.90
7972;DHT22;4031;49.758;6.120;2022-12-13T11:37:32;0.00;99.90
7972;DHT22;4031;49.758;6.120;2022-12-13T11:40:11;-0.10;99.90
7972;DHT22;4031;49.758;6.120;2022-12-13T11:45:36;-0.30;99.90
7972;DHT22;4031;49.758;6.120;2022-12-13T11:48:35;-0.20;99.90
7972;DHT22;4031;49.758;6.120;2022-12-13T11:51:07;-0.30;99.90
7972;DHT22;4031;49.758;6.120;2022-12-13T11:56:26;-0.40;99.90
7972;DHT22;4031;49.758;6.120;2022-12-13T11:59:20;-0.60;99.90
7972;DHT22;4031;49.758;6.120;2022-12-13T12:02:19;-0.70;99.90
7972;DHT22;4031;49.758;6.120;2022-12-13T12:04:54;-0.80;99.90
7972;DHT22;4031;49.758;6.120;2022-12-13T12:13:29;-0.70;99.90
7972;DHT22;4031;49.758;6.120;2022-12-13T12:16:08;-0.70;99.90
7972;DHT22;4031;49.758;6.120;2022-12-13T12:18:39;-0.80;99.90
7972;DHT22;4031;49.758;6.120;2022-12-13T12:21:13;-0.80;99.90
7972;DHT22;4031;49.758;6.120;2022-12-13T12:24:08;-1.00;99.90
7972;DHT22;4031;49.758;6.120;2022-12-13T12:30:14;-0.60;99.90
7972;DHT22;4031;49.758;6.120;2022-12-13T12:32:46;-0.60;99.90
7972;DHT22;4031;49.758;6.120;2022-12-13T12:50:55;-0.50;99.90
7972;DHT22;4031;49.758;6.120;2022-12-13T12:53:48;-0.70;99.90
7972;DHT22;4031;49.758;6.120;2022-12-13T12:59:29;-0.90;99.90
7972;DHT22;4031;49.758;6.120;2022-12-13T13:02:14;-0.90;99.90
7972;DHT22;4031;49.758;6.120;2022-12-13T13:04:57;-0.80;99.90
7972;DHT22;4031;49.758;6.120;2022-12-13T13:07:37;-0.70;99.90
7972;DHT22;4031;49.758;6.120;2022-12-13T13:10:07;-0.70;99.90
7972;DHT22;4031;49.758;6.120;2022-12-13T13:12:37;-0.70;99.90
7972;DHT22;4031;49.758;6.120;2022-12-13T13:17:55;-0.90;99.90
7972;DHT22;4031;49.758;6.120;2022-12-13T13:20:22;-1.00;99.90
7972;DHT22;4031;49.758;6.120;2022-12-13T13:22:51;-0.90;99.90
7972;DHT22;4031;49.758;6.120;2022-12-13T13:25:30;-0.90;99.90
7972;DHT22;4031;49.758;6.120;2022-12-13T13:28:12;-0.80;99.90
7972;DHT22;4031;49.758;6.120;2022-12-13T13:31:03;-0.60;99.90
7972;DHT22;4031;49.758;6.120;2022-12-13T13:33:47;-0.50;99.90
7972;DHT22;4031;49.758;6.120;2022-12-13T13:39:14;-0.50;99.90
7972;DHT22;4031;49.758;6.120;2022-12-13T13:47:11;-0.40;99.90
7972;DHT22;4031;49.758;6.120;2022-12-13T13:52:27;-0.50;99.90
7972;DHT22;4031;49.758;6.120;2022-12-13T14:21:40;-1.10;99.90
7972;DHT22;4031;49.758;6.120;2022-12-13T14:24:19;-1.20;99.90
7972;DHT22;4031;49.758;6.120;2022-12-13T14:29:45;-1.50;99.90
7972;DHT22;4031;49.758;6.120;2022-12-13T14:32:24;-1.60;99.90
7972;DHT22;4031;49.758;6.120;2022-12-13T14:34:51;-1.70;99.90
7972;DHT22;4031;49.758;6.120;2022-12-13T14:37:30;-1.80;99.90
7972;DHT22;4031;49.758;6.120;2022-12-13T14:40:01;-1.90;99.90
7972;DHT22;4031;49.758;6.120;2022-12-13T14:42:36;-2.00;99.90
7972;DHT22;4031;49.758;6.120;2022-12-13T14:45:17;-2.10;99.90
7972;DHT22;4031;49.758;6.120;2022-12-13T14:47:46;-2.10;99.90
7972;DHT22;4031;49.758;6.120;2022-12-13T14:50:16;-2.20;99.90
7972;DHT22;4031;49.758;6.120;2022-12-13T14:52:43;-2.20;99.90
7972;DHT22;4031;49.758;6.120;2022-12-13T14:55:32;-2.10;99.90
7972;DHT22;4031;49.758;6.120;2022-12-13T14:58:02;-2.10;99.90
7972;DHT22;4031;49.758;6.120;2022-12-13T15:00:43;-2.10;99.90
7972;DHT22;4031;49.758;6.120;2022-12-13T15:03:20;-2.10;99.90
7972;DHT22;4031;49.758;6.120;2022-12-13T15:05:52;-2.10;99.90
7972;DHT22;4031;49.758;6.120;2022-12-13T15:08:19;-2.10;99.90
7972;DHT22;4031;49.758;6.120;2022-12-13T15:10:48;-2.10;99.90
7972;DHT22;4031;49.758;6.120;2022-12-13T15:13:35;-2.10;99.90
7972;DHT22;4031;49.758;6.120;2022-12-13T15:16:06;-2.10;99.90
7972;DHT22;4031;49.758;6.120;2022-12-13T15:21:37;-2.20;99.90
7972;DHT22;4031;49.758;6.120;2022-12-13T15:24:03;-2.30;99.90
7972;DHT22;4031;49.758;6.120;2022-12-13T15:26:30;-2.30;99.90
7972;DHT22;4031;49.758;6.120;2022-12-13T15:28:59;-2.40;99.90
7972;DHT22;4031;49.758;6.120;2022-12-13T15:31:26;-2.40;99.90
7972;DHT22;4031;49.758;6.120;2022-12-13T15:33:52;-2.50;99.90
7972;DHT22;4031;49.758;6.120;2022-12-13T15:36:24;-2.60;99.90
7972;DHT22;4031;49.758;6.120;2022-12-13T15:41:26;-2.70;99.90
7972;DHT22;4031;49.758;6.120;2022-12-13T15:44:00;-2.60;99.90
7972;DHT22;4031;49.758;6.120;2022-12-13T15:46:30;-2.80;99.90
7972;DHT22;4031;49.758;6.120;2022-12-13T15:48:59;-2.80;99.90
7972;DHT22;4031;49.758;6.120;2022-12-13T15:51:27;-2.90;99.90
7972;DHT22;4031;49.758;6.120;2022-12-13T15:56:38;-2.90;99.90
7972;DHT22;4031;49.758;6.120;2022-12-13T16:01:57;-3.10;99.90
7972;DHT22;4031;49.758;6.120;2022-12-13T16:04:26;-3.10;99.90
7972;DHT22;4031;49.758;6.120;2022-12-13T16:06:53;-3.10;99.90
7972;DHT22;4031;49.758;6.120;2022-12-13T16:09:21;-3.10;99.90
7972;DHT22;4031;49.758;6.120;2022-12-13T16:11:52;-3.10;99.90
7972;DHT22;4031;49.758;6.120;2022-12-13T16:17:12;-3.10;99.90
7972;DHT22;4031;49.758;6.120;2022-12-13T16:19:39;-3.00;99.90
7972;DHT22;4031;49.758;6.120;2022-12-13T16:22:05;-3.00;99.90
7972;DHT22;4031;49.758;6.120;2022-12-13T16:24:31;-3.00;99.90
7972;DHT22;4031;49.758;6.120;2022-12-13T16:26:57;-3.00;99.90
7972;DHT22;4031;49.758;6.120;2022-12-13T16:29:23;-3.00;99.90
7972;DHT22;4031;49.758;6.120;2022-12-13T16:31:49;-2.90;99.90
7972;DHT22;4031;49.758;6.120;2022-12-13T16:34:14;-2.90;99.90
7972;DHT22;4031;49.758;6.120;2022-12-13T16:36:44;-2.90;99.90
7972;DHT22;4031;49.758;6.120;2022-12-13T16:39:13;-2.90;99.90
7972;DHT22;4031;49.758;6.120;2022-12-13T16:41:45;-2.90;99.90
7972;DHT22;4031;49.758;6.120;2022-12-13T16:44:33;-2.90;99.90
7972;DHT22;4031;49.758;6.120;2022-12-13T16:47:00;-3.00;99.90
7972;DHT22;4031;49.758;6.120;2022-12-13T16:49:28;-2.90;99.90
7972;DHT22;4031;49.758;6.120;2022-12-13T16:51:55;-2.80;99.90
7972;DHT22;4031;49.758;6.120;2022-12-13T16:54:22;-2.80;99.90
7972;DHT22;4031;49.758;6.120;2022-12-13T16:56:49;-2.80;99.90
7972;DHT22;4031;49.758;6.120;2022-12-13T16:59:20;-2.80;99.90
7972;DHT22;4031;49.758;6.120;2022-12-13T17:01:47;-2.80;99.90
7972;DHT22;4031;49.758;6.120;2022-12-13T17:04:16;-2.80;99.90
7972;DHT22;4031;49.758;6.120;2022-12-13T17:06:44;-2.80;99.90
7972;DHT22;4031;49.758;6.120;2022-12-13T17:09:10;-2.90;99.90
7972;DHT22;4031;49.758;6.120;2022-12-13T17:11:36;-2.90;99.90
7972;DHT22;4031;49.758;6.120;2022-12-13T17:14:03;-2.90;99.90
7972;DHT22;4031;49.758;6.120;2022-12-13T17:16:30;-2.90;99.90
7972;DHT22;4031;49.758;6.120;2022-12-13T17:18:56;-2.90;99.90
7972;DHT22;4031;49.758;6.120;2022-12-13T17:21:23;-2.90;99.90
7972;DHT22;4031;49.758;6.120;2022-12-13T17:23:57;-2.90;99.90
7972;DHT22;4031;49.758;6.120;2022-12-13T17:26:25;-2.80;99.90
7972;DHT22;4031;49.758;6.120;2022-12-13T17:28:51;-2.80;99.90
7972;DHT22;4031;49.758;6.120;2022-12-13T17:31:19;-2.70;99.90
7972;DHT22;4031;49.758;6.120;2022-12-13T17:33:45;-2.90;99.90
7972;DHT22;4031;49.758;6.120;2022-12-13T17:36:13;-2.90;99.90
7972;DHT22;4031;49.758;6.120;2022-12-13T17:38:43;-2.90;99.90
7972;DHT22;4031;49.758;6.120;2022-12-13T17:41:11;-2.90;99.90
7972;DHT22;4031;49.758;6.120;2022-12-13T17:43:38;-2.90;99.90
7972;DHT22;4031;49.758;6.120;2022-12-13T17:46:06;-2.90;99.90
7972;DHT22;4031;49.758;6.120;2022-12-13T17:48:34;-2.90;99.90
7972;DHT22;4031;49.758;6.120;2022-12-13T17:51:00;-2.90;99.90
7972;DHT22;4031;49.758;6.120;2022-12-13T17:53:26;-2.80;99.90
7972;DHT22;4031;49.758;6.120;2022-12-13T17:55:56;-2.80;99.90
7972;DHT22;4031;49.758;6.120;2022-12-13T17:58:24;-2.90;99.90
7972;DHT22;4031;49.758;6.120;2022-12-13T18:00:51;-3.00;99.90
7972;DHT22;4031;49.758;6.120;2022-12-13T18:03:17;-3.10;99.90
7972;DHT22;4031;49.758;6.120;2022-12-13T18:05:43;-3.20;99.90
7972;DHT22;4031;49.758;6.120;2022-12-13T18:08:08;-3.20;99.90
7972;DHT22;4031;49.758;6.120;2022-12-13T18:10:34;-3.30;99.90
7972;DHT22;4031;49.758;6.120;2022-12-13T18:13:00;-3.40;99.90
7972;DHT22;4031;49.758;6.120;2022-12-13T18:15:26;-3.50;99.90
7972;DHT22;4031;49.758;6.120;2022-12-13T18:17:51;-3.50;99.90
7972;DHT22;4031;49.758;6.120;2022-12-13T18:20:21;-3.50;99.90
7972;DHT22;4031;49.758;6.120;2022-12-13T18:22:47;-3.40;99.90
7972;DHT22;4031;49.758;6.120;2022-12-13T18:25:13;-3.40;99.90
7972;DHT22;4031;49.758;6.120;2022-12-13T18:27:39;-3.40;99.90